Anchorage, AK

11:55 PM AKDT ar Medi 19, 2014 (GMT -0800)
Merrill | Change Station
CLOSE
Current Station
Airport
Location: Anchorage Merrill,
Elevation: 135 ft
Nearby Weather Stations

Elev 135 ft 61.22 °N, 149.85 °W | Updated 1 hour ago

Light Rain
Glaw Ysgafn
50 °F
Feels Like 50 °F
N
10
Gwynt Cyfnewidiol Gwynt from DG
Gusts 17 mph

Heddiw
High -- | Low -- °F
--% Chance of Precip.
Yesterday
High -- | Low -- °F
Precip. -- mod
7:36 AM 8:08 PM
Waning Crescent, 14% visible
Gwasgedd 29.47 mod
Gwelededd 7.0 Milltiroedd
Clouds Cymylau Gwasgaredig 900 ft
Cymylog Yn Bennaf 3500 ft
Cymylog 5500 ft
Gwlithbwynt 47 °F
Lleithder 89%
Rainfall 0.49 mod
Snow Depth 2 in , 0 in , 0 in
UV 0 out of 12
Pollen Not available.
Air Quality Not available.
Flu Activity Not available.
METAR PAMR 200653Z 22009G15KT 7SM -RA SCT009 BKN035 OVC055 10/08 A2947 RMK AO2 SLP979 P0007 T01000083

More Conditions Fewer Conditions

Gwasgedd 29.47 mod
Gwelededd 7.0 Milltiroedd
Clouds Cymylau Gwasgaredig 900 ft
Cymylog Yn Bennaf 3500 ft
Cymylog 5500 ft
Gwlithbwynt 47 °F
Lleithder 89%
Rainfall 0.49 mod
Snow Depth 2 in , 0 in , 0 in
UV 0 out of 12
Pollen Not available.
Air Quality Not available.
Flu Activity Not available.
METAR PAMR 200653Z 22009G15KT 7SM -RA SCT009 BKN035 OVC055 10/08 A2947 RMK AO2 SLP979 P0007 T01000083

More Conditions Fewer Conditions

10-Day Weather Forecast

Almanac

Astronomy

Sep. 19, 2014 Rise Set
Actual Time 7:36 AM AKDT 8:08 PM AKDT
Civil Twilight 6:52 AM AKDT 8:51 PM AKDT
Nautical Twilight 5:59 AM AKDT 9:44 PM AKDT
Astronomical Twilight 5:00 AM AKDT 10:43 PM AKDT
Moon 2:35 AM AKDT (9/19) 6:29 PM AKDT (9/19)
Length Of Visible Light 13h 58m
Length of Day
12h 31m
Tomorrow will be 5m 40s shorter.
Waning Crescent, 14% of the Moon is Illuminated
Sep 20
Waning Crescent
Sep 24
New
Oct 1
First Quarter
Oct 8
Full
Oct 15
Last Quarter

Community

WunderPhotos

Upload Photos

1,754,793 photos uploaded!

WunderBlogs® & News

Nearby

Snow Depth

Station Depth Elevation
Atigun Pass 2 in 4800 ft
Moraine 0 in 2100 ft
Eagle Summit 0 in 3650 ft
Mcneil Canyon 1 in 1320 ft
Susitna Valley High 91 in 375 ft

Earthquake Activity

City Distance Mag. Time & Date
No recent earthquake activity has been reported nearby.
Minimum magnitude displayed is 2.5.

Coastal Water Temperatures

Lle Tymheredd
No Stations Reporting

Nearby Weather Stations